Time;durP1;ratioP1;P1;durP2;ratioP2;P2;SDS_P1;SDS_P2;PMS_P1;PMS_P2;Temp;Humidity;BMP_temperature;BMP_pressure;BME280_temperature;BME280_humidity;BME280_pressure;Samples;Min_cycle;Max_cycle;Signal;HPM_P1;HPM_P2
2021/10/19 00:00:28;;;;;;;1.73;0.50;;;19.30;68.50;;;;;;5106140;28;20088;-36
2021/10/19 00:02:54;;;;;;;0.50;0.40;;;19.20;68.40;;;;;;5106303;28;20024;-36
2021/10/19 00:05:20;;;;;;;0.70;0.40;;;19.20;68.40;;;;;;5106135;28;20046;-36
2021/10/19 00:07:46;;;;;;;0.43;0.35;;;19.20;68.40;;;;;;5104301;28;20036;-36
2021/10/19 00:10:15;;;;;;;0.40;0.40;;;19.20;68.40;;;;;;5106107;28;20032;-36
2021/10/19 00:12:41;;;;;;;1.02;0.50;;;19.20;68.30;;;;;;5104871;28;20016;-36
2021/10/19 00:15:09;;;;;;;1.08;0.45;;;19.20;68.40;;;;;;5098214;28;20683;-36
2021/10/19 00:17:41;;;;;;;0.63;0.40;;;19.20;68.30;;;;;;5084090;28;20073;-36
2021/10/19 00:20:08;;;;;;;0.73;0.50;;;19.20;68.30;;;;;;5085447;28;20028;-36
2021/10/19 00:22:35;;;;;;;0.77;0.60;;;19.20;68.10;;;;;;5083700;28;20059;-36
2021/10/19 00:25:04;;;;;;;0.75;0.50;;;19.20;68.10;;;;;;5085593;28;20024;-36
2021/10/19 00:27:33;;;;;;;0.77;0.40;;;19.20;67.90;;;;;;5085104;28;20039;-37
2021/10/19 00:30:00;;;;;;;0.65;0.40;;;19.20;67.90;;;;;;5067270;28;20037;-39
2021/10/19 00:32:26;;;;;;;0.85;0.50;;;19.20;67.80;;;;;;5071426;28;20024;-36
2021/10/19 00:34:52;;;;;;;0.50;0.50;;;19.10;67.70;;;;;;5105596;28;20054;-36
2021/10/19 00:37:19;;;;;;;0.88;0.60;;;19.10;67.70;;;;;;5103766;28;20039;-36
2021/10/19 00:39:45;;;;;;;0.65;0.57;;;19.10;67.80;;;;;;5105702;28;20042;-36
2021/10/19 00:42:11;;;;;;;0.93;0.65;;;19.10;67.70;;;;;;5104932;28;20027;-36
2021/10/19 00:44:37;;;;;;;0.85;0.60;;;19.10;67.80;;;;;;5101648;28;20058;-36
2021/10/19 00:47:03;;;;;;;0.80;0.60;;;19.10;67.70;;;;;;5086390;28;20024;-36
2021/10/19 00:49:30;;;;;;;0.70;0.52;;;19.10;67.80;;;;;;5105431;28;20036;-36
2021/10/19 00:51:56;;;;;;;0.90;0.60;;;19.10;67.80;;;;;;5104991;28;20028;-36
2021/10/19 00:54:25;;;;;;;0.60;0.40;;;19.10;67.80;;;;;;5087088;28;20048;-36
2021/10/19 00:56:54;;;;;;;1.35;0.80;;;19.10;67.90;;;;;;5104502;28;20392;-37
2021/10/19 00:59:21;;;;;;;0.88;0.52;;;19.10;67.90;;;;;;5105067;28;20030;-36
2021/10/19 01:01:47;;;;;;;0.60;0.40;;;19.10;67.80;;;;;;5105050;28;20035;-37
2021/10/19 01:04:13;;;;;;;0.90;0.70;;;19.10;67.90;;;;;;5104966;28;20272;-36
2021/10/19 01:06:40;;;;;;;0.95;0.50;;;19.00;67.80;;;;;;5104713;28;20044;-37
2021/10/19 01:09:06;;;;;;;0.50;0.50;;;19.00;67.80;;;;;;5104969;28;20047;-36
2021/10/19 01:11:33;;;;;;;0.82;0.65;;;19.00;67.90;;;;;;5104937;28;20031;-36
2021/10/19 01:13:59;;;;;;;0.90;0.80;;;19.00;67.80;;;;;;5104872;28;20046;-36
2021/10/19 01:16:25;;;;;;;0.80;0.70;;;19.00;67.80;;;;;;5104646;28;20430;-36
2021/10/19 01:18:51;;;;;;;1.05;0.70;;;19.00;67.90;;;;;;5104624;28;20031;-36
2021/10/19 01:21:17;;;;;;;0.80;0.65;;;19.00;67.90;;;;;;5104583;28;20040;-36
2021/10/19 01:23:44;;;;;;;1.55;1.00;;;18.90;67.90;;;;;;5104733;28;20063;-36
2021/10/19 01:26:10;;;;;;;0.70;0.65;;;18.90;67.90;;;;;;5104437;28;20024;-36
2021/10/19 01:28:40;;;;;;;1.02;0.88;;;18.90;67.90;;;;;;5104207;28;20028;-37
2021/10/19 01:31:07;;;;;;;0.90;0.70;;;18.90;68.00;;;;;;5104220;28;20492;-37
2021/10/19 01:33:33;;;;;;;0.75;0.68;;;18.90;68.00;;;;;;5103796;28;20024;-36
2021/10/19 01:35:59;;;;;;;1.00;0.90;;;18.90;68.00;;;;;;5104314;28;20024;-37
2021/10/19 01:38:27;;;;;;;1.13;0.63;;;18.90;68.10;;;;;;5104267;28;20103;-37
2021/10/19 01:40:54;;;;;;;1.65;0.73;;;18.90;68.10;;;;;;5104426;28;20020;-44
2021/10/19 01:43:22;;;;;;;1.30;1.00;;;18.80;68.10;;;;;;5102881;28;20035;-37
2021/10/19 01:45:52;;;;;;;1.48;0.80;;;18.80;68.10;;;;;;5104115;28;20051;-37
2021/10/19 01:48:18;;;;;;;0.88;0.70;;;18.80;68.20;;;;;;5102317;28;20044;-36
2021/10/19 01:50:45;;;;;;;1.08;0.80;;;18.80;68.20;;;;;;5104217;28;20034;-36
2021/10/19 01:53:11;;;;;;;1.50;0.70;;;18.80;68.30;;;;;;5104271;28;20024;-36
2021/10/19 01:55:37;;;;;;;0.93;0.70;;;18.70;68.30;;;;;;5103972;28;20024;-36
2021/10/19 01:58:05;;;;;;;1.08;0.77;;;18.80;68.30;;;;;;5103891;28;20032;-36
2021/10/19 02:00:31;;;;;;;;;;;18.80;68.40;;;;;;5104281;28;20043;-36
2021/10/19 02:02:57;;;;;;;1.20;0.70;;;18.70;68.40;;;;;;5103828;28;19907;-36
2021/10/19 02:05:23;;;;;;;1.30;0.93;;;18.70;68.40;;;;;;5103868;28;20067;-36
2021/10/19 02:07:49;;;;;;;1.33;0.95;;;18.70;68.50;;;;;;5103414;28;20052;-36
2021/10/19 02:10:15;;;;;;;1.65;1.08;;;18.70;68.50;;;;;;5103877;28;20024;-36
2021/10/19 02:12:41;;;;;;;2.17;1.00;;;18.70;68.50;;;;;;5103722;28;20066;-36
2021/10/19 02:15:09;;;;;;;1.48;0.82;;;18.70;68.60;;;;;;5103008;28;20028;-36
2021/10/19 02:17:35;;;;;;;;;;;18.60;68.50;;;;;;5102522;28;20606;-36
2021/10/19 02:20:02;;;;;;;0.77;0.77;;;18.60;68.50;;;;;;5103825;28;19926;-37
2021/10/19 02:22:28;;;;;;;1.10;0.90;;;18.60;68.60;;;;;;5103601;28;20028;-36
2021/10/19 02:24:55;;;;;;;1.40;0.93;;;18.60;69.40;;;;;;5103622;28;20027;-36
2021/10/19 02:27:21;;;;;;;1.27;0.80;;;18.60;68.70;;;;;;5103641;28;20496;-36
2021/10/19 02:29:47;;;;;;;1.20;1.10;;;18.60;68.80;;;;;;5103052;28;20048;-37
2021/10/19 02:32:14;;;;;;;0.82;0.70;;;18.60;68.80;;;;;;5103450;28;20043;-36
2021/10/19 02:34:40;;;;;;;1.33;0.95;;;18.50;68.80;;;;;;5103363;28;20043;-36
2021/10/19 02:37:06;;;;;;;1.17;0.85;;;18.50;68.80;;;;;;5103062;28;20020;-37
2021/10/19 02:39:32;;;;;;;1.17;0.93;;;18.50;68.80;;;;;;5099922;28;20024;-36
2021/10/19 02:41:58;;;;;;;1.65;0.98;;;18.50;69.00;;;;;;5103289;28;20031;-36
2021/10/19 02:44:24;;;;;;;1.50;1.13;;;18.50;68.90;;;;;;5103348;28;20032;-36
2021/10/19 02:46:50;;;;;;;1.50;0.95;;;18.50;69.00;;;;;;5103203;28;20044;-36
2021/10/19 02:49:17;;;;;;;1.33;1.02;;;18.40;69.10;;;;;;5102852;28;20147;-36
2021/10/19 02:51:43;;;;;;;1.45;0.98;;;18.40;69.10;;;;;;5103359;28;20031;-37
2021/10/19 02:54:10;;;;;;;1.20;0.85;;;18.40;69.10;;;;;;5103194;28;20028;-36
2021/10/19 02:56:38;;;;;;;2.20;1.08;;;18.40;69.10;;;;;;5103177;28;20016;-37
2021/10/19 02:59:04;;;;;;;1.05;0.90;;;18.40;69.20;;;;;;5103020;28;20020;-37
2021/10/19 03:01:31;;;;;;;2.13;0.90;;;18.40;69.20;;;;;;5103016;28;20028;-37
2021/10/19 03:03:57;;;;;;;1.13;0.70;;;18.40;69.30;;;;;;5102956;28;20107;-36
2021/10/19 03:06:23;;;;;;;1.10;1.00;;;18.40;69.20;;;;;;5102981;28;20086;-36
2021/10/19 03:08:49;;;;;;;1.42;0.93;;;18.30;69.30;;;;;;5102882;28;20032;-37
2021/10/19 03:11:16;;;;;;;2.45;1.05;;;18.30;69.30;;;;;;5103004;28;20020;-37
2021/10/19 03:13:42;;;;;;;1.50;0.90;;;18.30;69.40;;;;;;5102840;28;20106;-36
2021/10/19 03:16:08;;;;;;;1.17;1.08;;;18.30;69.40;;;;;;5102749;28;20024;-36
2021/10/19 03:18:34;;;;;;;1.40;1.08;;;18.30;69.40;;;;;;5102869;28;20032;-37
2021/10/19 03:21:00;;;;;;;1.50;1.00;;;18.30;69.50;;;;;;5102992;28;20024;-36
2021/10/19 03:23:26;;;;;;;1.38;0.90;;;18.20;69.50;;;;;;5103105;28;20020;-37
2021/10/19 03:25:52;;;;;;;2.40;1.20;;;18.30;69.60;;;;;;5102879;28;20035;-36
2021/10/19 03:28:18;;;;;;;2.55;0.90;;;18.20;69.60;;;;;;5102794;28;20103;-36
2021/10/19 03:30:45;;;;;;;1.60;1.15;;;18.20;69.60;;;;;;5102636;28;20043;-36
2021/10/19 03:33:11;;;;;;;2.80;1.00;;;18.20;69.70;;;;;;5102846;28;20135;-36
2021/10/19 03:35:37;;;;;;;1.25;0.90;;;18.20;69.70;;;;;;5102851;28;20021;-36
2021/10/19 03:38:03;;;;;;;1.20;0.82;;;18.20;69.80;;;;;;5103098;28;20166;-36
2021/10/19 03:40:29;;;;;;;1.97;1.07;;;18.10;69.70;;;;;;5102540;28;20082;-36
2021/10/19 03:42:56;;;;;;;2.20;1.10;;;18.10;69.60;;;;;;5102840;28;20264;-36
2021/10/19 03:45:22;;;;;;;1.58;1.00;;;18.10;69.70;;;;;;5102529;28;20027;-37
2021/10/19 03:47:48;;;;;;;1.23;1.10;;;18.10;69.70;;;;;;5102741;28;20095;-36
2021/10/19 03:50:14;;;;;;;1.60;1.17;;;18.10;69.80;;;;;;5102666;28;20067;-36
2021/10/19 03:52:40;;;;;;;1.00;0.90;;;18.10;69.80;;;;;;5102880;28;20066;-36
2021/10/19 03:55:07;;;;;;;1.10;0.90;;;18.10;69.90;;;;;;5102697;28;20023;-37
2021/10/19 03:57:33;;;;;;;1.00;0.90;;;18.10;69.90;;;;;;5104787;28;20028;-36
2021/10/19 03:59:59;;;;;;;1.25;0.98;;;18.00;69.90;;;;;;5105955;28;20099;-37
2021/10/19 04:02:25;;;;;;;1.88;1.10;;;18.00;70.00;;;;;;5106594;28;20024;-36
2021/10/19 04:04:52;;;;;;;1.10;1.00;;;18.00;70.10;;;;;;5106209;28;20016;-37
2021/10/19 04:07:18;;;;;;;2.17;0.88;;;18.00;70.10;;;;;;5106199;28;20056;-36
2021/10/19 04:09:44;;;;;;;1.50;1.20;;;18.00;70.10;;;;;;5105908;28;20039;-36
2021/10/19 04:12:10;;;;;;;2.72;1.05;;;18.00;70.20;;;;;;5105919;28;20016;-36
2021/10/19 04:14:36;;;;;;;1.85;1.10;;;18.00;70.20;;;;;;5105921;28;20024;-36
2021/10/19 04:17:03;;;;;;;1.23;0.98;;;18.00;70.20;;;;;;5106018;28;20024;-36
2021/10/19 04:19:29;;;;;;;2.92;1.17;;;17.90;70.20;;;;;;5104359;28;20154;-37
2021/10/19 04:21:55;;;;;;;2.38;1.20;;;17.90;70.20;;;;;;5104591;28;20092;-36
2021/10/19 04:24:21;;;;;;;2.05;1.10;;;17.90;70.20;;;;;;5105292;28;20020;-37
2021/10/19 04:26:47;;;;;;;2.00;1.15;;;17.90;70.30;;;;;;5105805;28;20024;-36
2021/10/19 04:29:13;;;;;;;2.75;1.10;;;17.90;70.30;;;;;;5105797;28;20120;-36
2021/10/19 04:31:41;;;;;;;1.13;1.02;;;17.90;70.30;;;;;;5105280;28;20050;-36
2021/10/19 04:34:07;;;;;;;1.58;1.10;;;17.90;70.40;;;;;;5105640;28;20059;-36
2021/10/19 04:36:34;;;;;;;2.40;1.50;;;17.80;70.30;;;;;;5105638;28;20023;-37
2021/10/19 04:39:00;;;;;;;1.58;1.10;;;17.80;70.40;;;;;;5105439;28;20032;-36
2021/10/19 04:41:28;;;;;;;1.33;1.00;;;17.80;70.40;;;;;;5101521;28;20031;-36
2021/10/19 04:43:55;;;;;;;1.10;1.00;;;17.80;70.40;;;;;;5104110;28;20031;-37
2021/10/19 04:46:21;;;;;;;1.67;1.23;;;17.80;70.50;;;;;;5105318;28;20024;-37
2021/10/19 04:48:47;;;;;;;1.73;1.15;;;17.80;70.50;;;;;;5105468;28;20049;-37
2021/10/19 04:51:13;;;;;;;1.45;1.20;;;17.80;70.60;;;;;;5105246;28;20034;-36
2021/10/19 04:53:40;;;;;;;1.60;1.33;;;17.80;70.60;;;;;;5104028;28;20043;-36
2021/10/19 04:56:10;;;;;;;1.40;1.20;;;17.70;70.70;;;;;;5089330;28;20024;-36
2021/10/19 04:58:36;;;;;;;2.33;1.42;;;17.70;70.70;;;;;;5084986;28;20299;-36
2021/10/19 05:01:02;;;;;;;1.60;1.15;;;17.70;70.70;;;;;;5084520;28;20051;-37
2021/10/19 05:03:28;;;;;;;1.48;1.27;;;17.70;70.70;;;;;;5093998;28;20553;-37
2021/10/19 05:05:54;;;;;;;1.58;1.10;;;17.70;70.70;;;;;;5105327;28;20079;-36
2021/10/19 05:08:20;;;;;;;2.72;1.40;;;17.70;70.80;;;;;;5103697;28;20071;-36
2021/10/19 05:10:46;;;;;;;1.92;1.35;;;17.70;70.70;;;;;;5104727;28;20045;-36
2021/10/19 05:13:13;;;;;;;1.77;1.15;;;17.70;70.80;;;;;;5104572;28;20671;-36
2021/10/19 05:15:39;;;;;;;2.03;1.38;;;17.60;70.80;;;;;;5104892;28;20439;-37
2021/10/19 05:18:05;;;;;;;1.52;1.27;;;17.60;70.80;;;;;;5104933;28;20028;-36
2021/10/19 05:20:31;;;;;;;1.80;1.20;;;17.60;70.80;;;;;;5104633;28;20055;-36
2021/10/19 05:22:57;;;;;;;1.55;1.30;;;17.60;70.90;;;;;;5104869;28;20070;-36
2021/10/19 05:25:24;;;;;;;1.25;1.05;;;17.60;70.90;;;;;;5104763;28;20024;-36
2021/10/19 05:27:50;;;;;;;1.40;1.15;;;17.60;71.00;;;;;;5104732;28;20024;-37
2021/10/19 05:30:17;;;;;;;1.47;1.10;;;17.50;70.90;;;;;;5104250;28;20567;-36
2021/10/19 05:32:44;;;;;;;1.77;1.20;;;17.50;71.00;;;;;;5104652;28;20050;-36
2021/10/19 05:35:10;;;;;;;2.45;1.50;;;17.50;71.10;;;;;;5104525;28;20032;-36
2021/10/19 05:37:36;;;;;;;2.10;1.40;;;17.50;71.10;;;;;;5104317;28;20084;-36
2021/10/19 05:40:05;;;;;;;2.60;1.17;;;17.50;71.20;;;;;;5103297;28;20020;-36
2021/10/19 05:42:31;;;;;;;1.52;1.10;;;17.50;71.20;;;;;;5102848;28;20020;-36
2021/10/19 05:44:58;;;;;;;1.83;1.48;;;17.50;71.20;;;;;;5104185;28;20050;-36
2021/10/19 05:47:24;;;;;;;2.10;1.30;;;17.50;71.20;;;;;;5104475;28;20074;-37
2021/10/19 05:49:50;;;;;;;1.60;1.27;;;17.40;71.20;;;;;;5104236;28;20131;-36
2021/10/19 05:52:16;;;;;;;1.42;1.20;;;17.40;71.20;;;;;;5102885;28;20527;-39
2021/10/19 05:54:42;;;;;;;1.80;1.23;;;17.40;71.20;;;;;;5099909;28;20025;-36
2021/10/19 05:57:08;;;;;;;3.55;1.40;;;17.40;71.30;;;;;;5083677;28;20029;-36
2021/10/19 05:59:35;;;;;;;2.50;1.30;;;17.40;71.30;;;;;;5083959;28;20028;-36
2021/10/19 06:02:03;;;;;;;1.65;1.38;;;17.40;71.30;;;;;;5099454;28;20024;-36
2021/10/19 06:04:29;;;;;;;1.52;1.13;;;17.30;71.30;;;;;;5103800;28;20036;-36
2021/10/19 06:06:59;;;;;;;2.38;1.50;;;17.40;71.40;;;;;;5103910;28;20044;-36
2021/10/19 06:09:26;;;;;;;1.73;1.50;;;17.30;71.40;;;;;;5102480;28;20056;-37
2021/10/19 06:11:55;;;;;;;1.83;1.50;;;17.30;71.40;;;;;;5103822;28;20027;-36
2021/10/19 06:14:22;;;;;;;2.05;1.35;;;17.30;71.50;;;;;;5103749;28;20044;-36
2021/10/19 06:16:48;;;;;;;2.38;1.40;;;17.30;71.50;;;;;;5103674;28;20077;-36
2021/10/19 06:19:15;;;;;;;1.90;1.37;;;17.30;71.60;;;;;;5103516;28;20107;-37
2021/10/19 06:21:41;;;;;;;2.63;1.60;;;17.30;71.60;;;;;;5103612;28;20052;-36
2021/10/19 06:24:08;;;;;;;2.17;1.53;;;17.30;72.30;;;;;;5103807;28;20055;-36
2021/10/19 06:26:37;;;;;;;2.10;1.45;;;17.30;71.60;;;;;;5083801;28;20088;-36
2021/10/19 06:29:05;;;;;;;2.35;1.30;;;17.20;71.60;;;;;;5083476;28;20045;-36
2021/10/19 06:31:31;;;;;;;3.03;1.35;;;17.20;71.70;;;;;;5083100;28;20025;-37
2021/10/19 06:33:57;;;;;;;2.05;1.48;;;17.20;71.70;;;;;;5083297;28;20032;-36
2021/10/19 06:36:23;;;;;;;1.75;1.27;;;17.20;71.70;;;;;;5090517;28;20051;-36
2021/10/19 06:38:50;;;;;;;1.70;1.42;;;17.20;71.70;;;;;;5100900;28;20021;-36
2021/10/19 06:41:16;;;;;;;1.52;1.25;;;17.20;71.70;;;;;;5083150;28;20073;-37
2021/10/19 06:43:42;;;;;;;2.22;1.48;;;17.20;71.80;;;;;;5083372;28;20032;-36
2021/10/19 06:46:08;;;;;;;1.75;1.45;;;17.10;71.70;;;;;;5083196;28;20112;-37
2021/10/19 06:48:34;;;;;;;1.55;1.20;;;17.10;71.80;;;;;;5083085;28;20114;-36
2021/10/19 06:51:02;;;;;;;1.75;1.30;;;17.10;71.70;;;;;;5083032;28;20047;-36
2021/10/19 06:53:28;;;;;;;;;;;17.10;71.80;;;;;;5082192;28;20055;-37
2021/10/19 06:55:54;;;;;;;1.50;1.30;;;17.10;71.90;;;;;;5097423;28;20661;-37
2021/10/19 06:58:20;;;;;;;2.13;1.42;;;17.10;71.90;;;;;;5103436;28;20023;-36
2021/10/19 07:00:46;;;;;;;1.50;1.35;;;17.10;71.90;;;;;;5102906;28;20017;-36
2021/10/19 07:03:12;;;;;;;1.92;1.38;;;17.10;71.90;;;;;;5102715;28;20095;-37
2021/10/19 07:05:38;;;;;;;1.65;1.23;;;17.00;71.90;;;;;;5103235;28;20040;-36
2021/10/19 07:08:06;;;;;;;2.55;1.40;;;17.00;71.90;;;;;;5102892;28;20098;-36
2021/10/19 07:10:32;;;;;;;1.58;1.33;;;17.00;72.00;;;;;;5103401;28;20048;-36
2021/10/19 07:12:58;;;;;;;2.03;1.30;;;17.00;72.00;;;;;;5102819;28;20424;-37
2021/10/19 07:15:25;;;;;;;1.73;1.33;;;17.00;72.00;;;;;;5102986;28;20055;-36
2021/10/19 07:17:51;;;;;;;3.13;1.58;;;17.00;72.10;;;;;;5101728;28;20046;-36
2021/10/19 07:20:17;;;;;;;1.50;1.38;;;17.00;72.10;;;;;;5103110;28;20059;-36
2021/10/19 07:22:44;;;;;;;1.33;1.23;;;17.00;72.10;;;;;;5102968;28;20028;-36
2021/10/19 07:25:11;;;;;;;2.40;1.30;;;17.00;72.10;;;;;;5102915;28;20757;-36
2021/10/19 07:27:37;;;;;;;1.90;0.95;;;16.90;72.10;;;;;;5103187;28;20032;-36
2021/10/19 07:30:04;;;;;;;1.75;1.30;;;16.90;72.00;;;;;;5103137;28;20047;-36
2021/10/19 07:32:30;;;;;;;1.45;1.30;;;16.90;72.20;;;;;;5104569;28;20035;-36
2021/10/19 07:34:56;;;;;;;2.17;1.40;;;16.90;72.20;;;;;;5107039;28;20032;-36
2021/10/19 07:37:22;;;;;;;1.80;1.48;;;16.90;72.20;;;;;;5106715;28;20028;-36
2021/10/19 07:39:48;;;;;;;1.77;1.50;;;16.90;72.30;;;;;;5106870;28;20044;-37
2021/10/19 07:42:16;;;;;;;2.38;1.73;;;16.90;72.20;;;;;;5106697;28;20044;-36
2021/10/19 07:44:42;;;;;;;2.63;1.40;;;16.90;72.30;;;;;;5106619;28;20039;-37
2021/10/19 07:47:10;;;;;;;2.75;1.45;;;16.80;72.30;;;;;;5106736;28;20028;-36
2021/10/19 07:49:36;;;;;;;1.35;1.23;;;16.80;72.30;;;;;;5106528;28;20060;-36
2021/10/19 07:52:02;;;;;;;2.63;1.75;;;16.80;72.30;;;;;;5106590;28;20036;-36
2021/10/19 07:54:29;;;;;;;2.83;1.85;;;16.80;72.40;;;;;;5103970;28;20039;-36
2021/10/19 07:56:55;;;;;;;1.48;1.30;;;16.80;72.40;;;;;;5086279;28;20031;-36
2021/10/19 07:59:21;;;;;;;1.70;1.25;;;16.80;72.40;;;;;;5085933;28;20024;-36
2021/10/19 08:01:48;;;;;;;1.83;1.52;;;16.80;72.40;;;;;;5086085;28;20031;-36
2021/10/19 08:04:14;;;;;;;2.77;1.47;;;16.80;72.40;;;;;;5085716;28;20032;-36
2021/10/19 08:06:40;;;;;;;1.40;1.20;;;16.70;72.40;;;;;;5085804;28;20281;-36
2021/10/19 08:09:06;;;;;;;3.05;1.63;;;16.70;72.40;;;;;;5085992;28;20056;-36
2021/10/19 08:11:33;;;;;;;2.30;1.40;;;16.70;72.40;;;;;;5085983;28;20087;-37
2021/10/19 08:13:59;;;;;;;;;;;16.70;72.50;;;;;;5086267;28;20032;-36
2021/10/19 08:16:26;;;;;;;2.53;1.48;;;16.70;72.50;;;;;;5085793;28;20308;-36
2021/10/19 08:18:53;;;;;;;1.98;1.40;;;16.70;72.60;;;;;;5085704;28;20567;-36
2021/10/19 08:21:20;;;;;;;;;;;16.70;72.50;;;;;;5086174;28;20024;-36
2021/10/19 08:23:47;;;;;;;1.25;1.00;;;16.70;72.60;;;;;;5085531;28;19927;-36
2021/10/19 08:26:13;;;;;;;2.95;1.80;;;16.60;72.60;;;;;;5102665;28;20084;-36
2021/10/19 08:28:47;;;;;;;4.07;1.70;;;16.60;72.50;;;;;;5105021;28;20024;-37
2021/10/19 08:31:15;;;;;;;2.50;1.33;;;16.60;72.60;;;;;;5103961;28;20039;-36
2021/10/19 08:33:43;;;;;;;2.88;1.65;;;16.60;72.70;;;;;;5105479;28;20027;-36
2021/10/19 08:36:10;;;;;;;1.58;1.30;;;16.60;72.70;;;;;;5100426;28;20032;-37
2021/10/19 08:38:36;;;;;;;1.58;1.15;;;16.60;72.70;;;;;;5085612;28;20025;-36
2021/10/19 08:41:03;;;;;;;2.22;1.60;;;16.60;72.70;;;;;;5085547;28;20032;-36
2021/10/19 08:43:29;;;;;;;1.65;1.38;;;16.60;72.70;;;;;;5085043;28;20035;-36
2021/10/19 08:45:55;;;;;;;2.60;1.45;;;16.60;72.80;;;;;;5085402;28;20064;-36
2021/10/19 08:48:21;;;;;;;1.92;1.42;;;16.60;72.80;;;;;;5067398;28;20432;-36
2021/10/19 08:50:47;;;;;;;1.73;1.30;;;16.50;72.70;;;;;;5085395;28;20059;-36
2021/10/19 08:53:13;;;;;;;1.75;1.50;;;16.50;72.80;;;;;;5083748;28;20396;-36
2021/10/19 08:55:40;;;;;;;1.83;1.60;;;16.50;72.80;;;;;;5097281;28;20028;-36
2021/10/19 08:58:11;;;;;;;2.22;1.38;;;16.50;72.90;;;;;;5105297;28;20032;-36
2021/10/19 09:00:40;;;;;;;1.33;1.15;;;16.50;72.90;;;;;;5104872;28;20032;-36
2021/10/19 09:03:06;;;;;;;1.80;1.52;;;16.50;72.90;;;;;;5105196;28;20682;-37
2021/10/19 09:05:32;;;;;;;1.90;1.50;;;16.50;73.00;;;;;;5103740;28;20087;-37
2021/10/19 09:08:08;;;;;;;2.00;1.40;;;16.50;73.00;;;;;;5105086;28;20056;-36
2021/10/19 09:10:36;;;;;;;2.30;1.75;;;16.50;72.90;;;;;;5104101;28;20143;-36
2021/10/19 09:13:11;;;;;;;2.53;1.55;;;16.50;73.00;;;;;;5105157;28;20030;-37
2021/10/19 09:15:42;;;;;;;1.90;1.50;;;16.40;73.00;;;;;;5103324;28;20504;-36
2021/10/19 09:18:13;;;;;;;2.63;1.55;;;16.40;73.00;;;;;;5103818;28;20028;-36
2021/10/19 09:20:42;;;;;;;2.65;1.48;;;16.40;72.90;;;;;;5105044;28;20110;-37
2021/10/19 09:23:09;;;;;;;1.85;1.52;;;16.40;73.00;;;;;;5104852;28;20020;-36
2021/10/19 09:25:42;;;;;;;1.70;1.52;;;16.40;73.00;;;;;;5104356;28;20076;-37
2021/10/19 09:28:10;;;;;;;3.00;1.42;;;16.40;73.00;;;;;;5104853;28;20066;-36
2021/10/19 09:30:40;;;;;;;;;;;16.40;73.00;;;;;;5103753;28;20032;-37
2021/10/19 09:33:08;;;;;;;3.38;1.65;;;16.30;73.00;;;;;;5104851;28;19911;-36
2021/10/19 09:35:35;;;;;;;2.47;1.52;;;16.30;73.10;;;;;;5102945;28;20538;-36
2021/10/19 09:38:06;;;;;;;1.90;1.55;;;16.30;73.10;;;;;;5104752;28;20028;-36
2021/10/19 09:40:43;;;;;;;2.20;1.42;;;16.30;73.10;;;;;;5104680;28;20867;-36
2021/10/19 09:43:11;;;;;;;2.27;1.50;;;16.30;73.10;;;;;;5103121;28;20027;-36
2021/10/19 09:45:41;;;;;;;1.98;1.42;;;16.30;73.20;;;;;;5104043;28;20028;-38
2021/10/19 09:48:08;;;;;;;1.85;1.60;;;16.30;73.20;;;;;;5102950;28;20030;-36
2021/10/19 09:50:34;;;;;;;2.25;1.35;;;16.20;73.20;;;;;;5103204;28;20038;-36
2021/10/19 09:53:00;;;;;;;2.00;1.48;;;16.30;73.30;;;;;;5104198;28;20055;-36
2021/10/19 09:55:26;;;;;;;2.20;1.65;;;16.20;73.10;;;;;;5102972;28;20035;-37
2021/10/19 09:57:53;;;;;;;2.17;1.70;;;16.20;73.20;;;;;;5104155;28;20054;-37
2021/10/19 10:00:20;;;;;;;2.53;1.77;;;16.20;73.20;;;;;;5104372;28;20017;-36
2021/10/19 10:02:46;;;;;;;1.60;1.35;;;16.20;73.20;;;;;;5103909;28;20507;-37
2021/10/19 10:05:12;;;;;;;2.50;1.60;;;16.20;73.30;;;;;;5102798;28;20107;-37
2021/10/19 10:07:41;;;;;;;2.92;1.42;;;16.20;73.30;;;;;;5103821;28;20150;-36
2021/10/19 10:10:07;;;;;;;2.13;1.60;;;16.20;73.30;;;;;;5102568;28;20066;-36
2021/10/19 10:12:34;;;;;;;2.90;1.87;;;16.20;73.30;;;;;;5102631;28;20039;-36
2021/10/19 10:15:00;;;;;;;3.63;2.03;;;16.20;73.40;;;;;;5103899;28;20032;-36
2021/10/19 10:17:26;;;;;;;2.35;1.83;;;16.20;73.40;;;;;;5103915;28;20111;-36
2021/10/19 10:19:53;;;;;;;2.17;1.77;;;16.10;73.40;;;;;;5103668;28;20564;-36
2021/10/19 10:22:25;;;;;;;2.87;1.87;;;16.10;73.50;;;;;;5103527;28;20032;-37
2021/10/19 10:25:05;;;;;;;2.75;1.48;;;16.10;73.40;;;;;;5102317;28;20043;-36
2021/10/19 10:27:31;;;;;;;2.45;1.77;;;16.10;73.40;;;;;;5103538;28;20016;-37
2021/10/19 10:29:58;;;;;;;2.28;1.80;;;16.10;73.40;;;;;;5103578;28;20063;-37
2021/10/19 10:32:36;;;;;;;2.92;1.75;;;16.10;73.40;;;;;;5103345;28;20020;-36
2021/10/19 10:35:05;;;;;;;2.75;1.80;;;16.10;73.50;;;;;;5103347;28;20028;-36
2021/10/19 10:37:39;;;;;;;2.33;1.73;;;16.10;73.50;;;;;;5087679;28;20021;-36
2021/10/19 10:40:09;;;;;;;3.58;1.67;;;16.00;73.50;;;;;;5083480;28;20033;-36
2021/10/19 10:42:36;;;;;;;1.67;1.38;;;16.00;73.50;;;;;;5081641;28;20028;-37
2021/10/19 10:45:03;;;;;;;1.90;1.50;;;16.00;73.50;;;;;;5083383;28;20025;-36
2021/10/19 10:47:30;;;;;;;2.30;1.88;;;16.00;73.50;;;;;;5083098;28;20033;-37
2021/10/19 10:49:57;;;;;;;2.42;1.88;;;16.00;73.50;;;;;;5083186;28;20065;-36
2021/10/19 10:52:23;;;;;;;2.25;1.73;;;16.00;73.60;;;;;;5073309;28;20012;-37
2021/10/19 10:54:56;;;;;;;2.20;1.73;;;16.00;73.60;;;;;;5103251;28;20161;-36
2021/10/19 10:57:22;;;;;;;2.65;1.65;;;16.00;73.70;;;;;;5103316;28;20035;-37
2021/10/19 10:59:55;;;;;;;2.95;1.80;;;15.90;73.60;;;;;;5103244;28;20032;-36
2021/10/19 11:02:25;;;;;;;2.97;2.03;;;15.90;73.60;;;;;;5084928;28;20546;-36
2021/10/19 11:04:51;;;;;;;2.92;1.75;;;15.90;73.60;;;;;;5101774;28;20087;-36
2021/10/19 11:07:34;;;;;;;2.78;1.80;;;15.90;73.70;;;;;;5087004;28;20686;-36
2021/10/19 11:10:14;;;;;;;3.95;1.98;;;15.90;73.70;;;;;;5105960;28;20104;-36
2021/10/19 11:12:42;;;;;;;2.60;1.83;;;15.90;73.70;;;;;;5107081;28;20047;-36
2021/10/19 11:15:12;;;;;;;3.13;1.80;;;15.90;73.70;;;;;;5106025;28;20020;-36
2021/10/19 11:17:49;;;;;;;3.33;1.88;;;15.90;73.70;;;;;;5107259;28;20039;-37
2021/10/19 11:20:16;;;;;;;2.95;1.63;;;15.90;73.80;;;;;;5107028;28;20027;-37
2021/10/19 11:22:43;;;;;;;2.05;1.63;;;15.90;73.80;;;;;;5107059;28;20031;-37
2021/10/19 11:25:09;;;;;;;2.72;1.70;;;15.80;73.80;;;;;;5107117;28;20099;-36
2021/10/19 11:27:37;;;;;;;3.00;1.80;;;15.80;73.80;;;;;;5106496;28;20132;-37
2021/10/19 11:30:06;;;;;;;1.85;1.50;;;15.80;73.80;;;;;;5106780;28;20288;-37
2021/10/19 11:32:33;;;;;;;2.97;2.20;;;15.80;73.80;;;;;;5089524;28;20024;-37
2021/10/19 11:34:59;;;;;;;2.47;1.75;;;15.80;73.80;;;;;;5105669;28;20043;-37
2021/10/19 11:37:34;;;;;;;2.58;1.70;;;15.80;74.40;;;;;;5106973;28;20055;-36
2021/10/19 11:40:10;;;;;;;2.70;1.90;;;15.80;73.80;;;;;;5105467;28;21003;-37
2021/10/19 11:42:47;;;;;;;3.22;2.10;;;15.80;73.80;;;;;;5088550;28;20012;-36
2021/10/19 11:45:17;;;;;;;3.17;1.98;;;15.80;73.80;;;;;;5106584;28;20028;-37
2021/10/19 11:47:51;;;;;;;2.75;1.83;;;15.70;73.80;;;;;;5106585;28;20055;-36
2021/10/19 11:50:20;;;;;;;3.47;1.90;;;15.70;73.90;;;;;;5105972;28;20051;-37
2021/10/19 11:52:46;;;;;;;2.30;1.65;;;15.70;74.00;;;;;;5088563;28;20103;-36
2021/10/19 11:55:13;;;;;;;2.78;1.90;;;15.70;73.90;;;;;;5105264;28;20026;-36
2021/10/19 11:57:39;;;;;;;3.22;1.50;;;15.70;73.90;;;;;;5088297;28;20052;-37
2021/10/19 12:00:09;;;;;;;2.50;1.85;;;15.70;74.00;;;;;;5106251;28;20487;-37
2021/10/19 12:02:36;;;;;;;2.00;1.60;;;15.70;74.00;;;;;;5106530;28;20043;-36
2021/10/19 12:05:06;;;;;;;2.13;1.75;;;15.70;74.00;;;;;;5104831;28;20024;-36
2021/10/19 12:07:32;;;;;;;3.58;1.90;;;15.60;74.00;;;;;;5106087;28;20538;-37
2021/10/19 12:10:11;;;;;;;3.15;1.90;;;15.70;74.10;;;;;;5106236;28;20047;-36
2021/10/19 12:12:37;;;;;;;2.85;1.90;;;15.60;74.00;;;;;;5105789;28;20024;-36
2021/10/19 12:15:04;;;;;;;2.97;1.88;;;15.60;74.00;;;;;;5105817;28;20051;-36
2021/10/19 12:17:30;;;;;;;3.90;2.00;;;15.60;74.00;;;;;;5105486;28;20017;-36
2021/10/19 12:19:56;;;;;;;3.03;2.05;;;15.60;74.10;;;;;;5105808;28;20085;-36
2021/10/19 12:22:32;;;;;;;2.33;1.83;;;15.60;74.10;;;;;;5104619;28;20485;-37
2021/10/19 12:24:58;;;;;;;2.85;1.92;;;15.60;74.10;;;;;;5105996;28;20101;-37
2021/10/19 12:27:24;;;;;;;2.50;1.70;;;15.60;74.10;;;;;;5105161;28;20077;-36
2021/10/19 12:29:54;;;;;;;2.88;2.00;;;15.60;74.10;;;;;;5084090;28;20040;-36
2021/10/19 12:32:33;;;;;;;2.33;1.65;;;15.60;74.20;;;;;;5103827;28;20024;-36
2021/10/19 12:35:00;;;;;;;3.08;2.15;;;15.60;74.20;;;;;;5105740;28;20032;-36
2021/10/19 12:37:32;;;;;;;3.47;2.10;;;15.50;74.00;;;;;;5105840;28;20515;-37
2021/10/19 12:39:59;;;;;;;3.58;1.95;;;15.50;74.10;;;;;;5105635;28;20062;-36
2021/10/19 12:42:25;;;;;;;2.00;1.60;;;15.50;74.10;;;;;;5088496;28;20079;-36
2021/10/19 12:44:51;;;;;;;2.92;2.10;;;15.50;74.20;;;;;;5083813;28;20028;-37
2021/10/19 12:47:17;;;;;;;2.65;1.70;;;15.50;74.20;;;;;;5085455;28;20120;-36